Time;durP1;ratioP1;P1;durP2;ratioP2;P2;SDS_P1;SDS_P2;PMS_P1;PMS_P2;Temp;Humidity;BMP_temperature;BMP_pressure;BME280_temperature;BME280_humidity;BME280_pressure;Samples;Min_cycle;Max_cycle;Signal;HPM_P1;HPM_P2
2022/02/25 00:00:31;;;;;;;200.07;191.50;;;2.90;99.90;;;;;;4360260;33;20226;-64
2022/02/25 00:02:58;;;;;;;211.47;202.07;;;2.90;99.90;;;;;;4362367;33;20203;-66
2022/02/25 00:05:25;;;;;;;207.97;199.13;;;2.90;99.90;;;;;;4363065;32;20173;-68
2022/02/25 00:07:53;;;;;;;212.57;203.57;;;2.90;99.90;;;;;;4362968;32;20215;-68
2022/02/25 00:10:20;;;;;;;214.10;205.40;;;2.90;99.90;;;;;;4357958;32;20615;-64
2022/02/25 00:12:48;;;;;;;235.37;225.60;;;2.90;99.90;;;;;;4363612;32;20488;-67
2022/02/25 00:15:15;;;;;;;223.17;213.70;;;3.00;99.90;;;;;;4363572;32;20526;-65
2022/02/25 00:17:42;;;;;;;218.93;210.03;;;3.20;99.90;;;;;;4362961;32;20526;-66
2022/02/25 00:20:11;;;;;;;211.63;202.97;;;3.40;99.90;;;;;;4355319;33;20199;-65
2022/02/25 00:22:38;;;;;;;213.70;204.37;;;3.40;99.90;;;;;;4347652;33;20489;-65
2022/02/25 00:25:08;;;;;;;219.73;210.30;;;3.40;99.90;;;;;;4355611;32;20152;-65
2022/02/25 00:27:38;;;;;;;216.40;206.80;;;3.20;99.90;;;;;;4361692;32;20162;-64
2022/02/25 00:30:06;;;;;;;206.83;198.00;;;3.20;99.90;;;;;;4358635;33;20153;-62
2022/02/25 00:32:33;;;;;;;212.33;202.87;;;3.10;99.90;;;;;;4347722;33;20170;-65
2022/02/25 00:35:00;;;;;;;208.27;199.67;;;3.10;99.90;;;;;;4347697;33;20189;-66
2022/02/25 00:37:27;;;;;;;212.50;203.47;;;3.10;99.90;;;;;;4347882;33;20238;-67
2022/02/25 00:39:54;;;;;;;217.47;208.17;;;3.00;99.90;;;;;;4349943;33;20490;-64
2022/02/25 00:42:23;;;;;;;225.20;215.00;;;3.00;99.90;;;;;;4360646;33;20194;-66
2022/02/25 00:44:50;;;;;;;229.87;219.67;;;2.90;99.90;;;;;;4375817;32;20149;-65
2022/02/25 00:47:17;;;;;;;224.57;215.00;;;2.90;99.90;;;;;;4378761;32;20190;-65
2022/02/25 00:49:44;;;;;;;226.57;216.63;;;2.90;99.90;;;;;;4376238;32;20515;-65
2022/02/25 00:52:11;;;;;;;226.10;216.20;;;2.80;99.90;;;;;;4350781;33;20149;-66
2022/02/25 00:54:39;;;;;;;223.87;214.77;;;2.70;99.90;;;;;;4362447;33;20143;-62
2022/02/25 00:57:06;;;;;;;224.07;214.17;;;2.70;99.90;;;;;;4362035;33;20543;-66
2022/02/25 00:59:34;;;;;;;234.43;224.77;;;2.70;99.90;;;;;;4362733;32;20154;-66
2022/02/25 01:02:01;;;;;;;234.07;224.10;;;2.70;99.90;;;;;;4350152;33;20651;-62
2022/02/25 01:04:29;;;;;;;230.87;221.00;;;2.80;99.90;;;;;;4347352;33;20183;-65
2022/02/25 01:06:56;;;;;;;232.37;222.30;;;2.80;99.90;;;;;;4347235;33;20326;-66
2022/02/25 01:09:24;;;;;;;231.33;221.60;;;2.80;99.90;;;;;;4347086;33;20147;-66
2022/02/25 01:11:51;;;;;;;229.60;219.80;;;2.80;99.90;;;;;;4356141;33;20151;-66
2022/02/25 01:14:18;;;;;;;232.83;222.93;;;2.80;99.90;;;;;;4362017;33;20151;-63
2022/02/25 01:16:46;;;;;;;229.30;219.30;;;2.80;99.90;;;;;;4363732;32;20188;-64
2022/02/25 01:19:13;;;;;;;242.10;231.80;;;2.70;99.90;;;;;;4362904;32;20150;-63
2022/02/25 01:21:39;;;;;;;247.97;237.57;;;2.80;99.90;;;;;;4360148;32;20537;-65
2022/02/25 01:24:06;;;;;;;231.27;221.63;;;2.80;99.90;;;;;;4362745;32;20151;-63
2022/02/25 01:26:33;;;;;;;238.63;228.30;;;2.70;99.90;;;;;;4361343;33;20211;-63
2022/02/25 01:29:01;;;;;;;240.77;230.77;;;2.80;99.90;;;;;;4361679;33;20158;-64
2022/02/25 01:31:28;;;;;;;231.47;221.50;;;2.80;99.90;;;;;;4356884;33;20595;-65
2022/02/25 01:33:56;;;;;;;230.80;220.83;;;2.70;99.90;;;;;;4357024;32;20173;-65
2022/02/25 01:36:23;;;;;;;232.37;222.43;;;2.80;99.90;;;;;;4362033;32;20460;-65
2022/02/25 01:38:50;;;;;;;244.00;233.57;;;2.70;99.90;;;;;;4362109;32;20141;-65
2022/02/25 01:41:17;;;;;;;244.60;233.90;;;2.80;99.90;;;;;;4361780;32;20174;-64
2022/02/25 01:43:44;;;;;;;231.30;221.63;;;2.80;99.90;;;;;;4347657;33;20443;-65
2022/02/25 01:46:11;;;;;;;237.23;226.20;;;2.80;99.90;;;;;;4347098;33;20177;-65
2022/02/25 01:48:38;;;;;;;240.50;230.33;;;2.80;99.90;;;;;;4353846;33;20201;-66
2022/02/25 01:51:06;;;;;;;244.87;233.80;;;2.80;99.90;;;;;;4361007;32;20143;-62
2022/02/25 01:53:33;;;;;;;234.83;224.73;;;2.90;99.90;;;;;;4358281;32;20509;-65
2022/02/25 01:56:00;;;;;;;238.13;227.77;;;2.90;99.90;;;;;;4349782;33;20584;-64
2022/02/25 01:58:28;;;;;;;234.00;224.07;;;2.90;99.90;;;;;;4347020;33;20168;-63
2022/02/25 02:01:07;;;;;;;246.03;234.77;;;2.80;99.90;;;;;;4347769;33;20149;-65
2022/02/25 02:03:34;;;;;;;225.47;214.80;;;2.90;99.90;;;;;;4349931;33;20145;-62
2022/02/25 02:06:01;;;;;;;243.73;232.60;;;2.80;99.90;;;;;;4346408;33;20488;-64
2022/02/25 02:08:29;;;;;;;236.07;225.53;;;2.80;99.90;;;;;;4361120;33;20142;-66
2022/02/25 02:10:56;;;;;;;235.43;224.67;;;2.80;99.90;;;;;;4352087;32;20676;-64
2022/02/25 02:13:23;;;;;;;241.73;231.60;;;2.80;99.90;;;;;;4349707;32;20188;-64
2022/02/25 02:15:55;;;;;;;241.97;231.57;;;2.70;99.90;;;;;;4354326;33;21065;-66
2022/02/25 02:18:24;;;;;;;239.67;229.17;;;2.70;99.90;;;;;;4350068;32;20190;-66
2022/02/25 02:20:50;;;;;;;240.33;230.20;;;2.70;99.90;;;;;;4353297;33;20203;-66
2022/02/25 02:23:19;;;;;;;244.23;233.60;;;2.70;99.90;;;;;;4358501;32;20146;-66
2022/02/25 02:25:45;;;;;;;243.53;233.23;;;2.60;99.90;;;;;;4359827;33;20268;-63
2022/02/25 02:28:21;;;;;;;251.60;240.37;;;2.60;99.90;;;;;;4361106;32;20656;-66
2022/02/25 02:30:50;;;;;;;252.37;240.87;;;2.60;99.90;;;;;;4362056;32;20215;-66
2022/02/25 02:33:17;;;;;;;250.03;239.20;;;2.60;99.90;;;;;;4354075;32;20161;-64
2022/02/25 02:35:43;;;;;;;254.00;243.07;;;2.60;99.90;;;;;;4346732;33;20166;-63
2022/02/25 02:38:11;;;;;;;249.07;237.80;;;2.60;99.90;;;;;;4347038;33;20179;-65
2022/02/25 02:40:39;;;;;;;247.33;236.67;;;2.70;99.90;;;;;;4346014;33;20165;-63
2022/02/25 02:43:07;;;;;;;251.87;240.77;;;2.60;99.90;;;;;;4350562;33;20166;-65
2022/02/25 02:45:34;;;;;;;254.03;242.10;;;2.60;99.90;;;;;;4361019;32;20143;-64
2022/02/25 02:48:00;;;;;;;253.30;242.37;;;2.60;99.90;;;;;;4360630;32;20183;-62
2022/02/25 02:50:27;;;;;;;261.30;249.87;;;2.70;99.90;;;;;;4360695;33;20496;-64
2022/02/25 02:52:54;;;;;;;262.23;251.03;;;2.60;99.90;;;;;;4359477;32;20204;-66
2022/02/25 02:55:22;;;;;;;269.90;258.17;;;2.70;99.90;;;;;;4347228;33;20528;-66
2022/02/25 02:57:50;;;;;;;257.77;246.97;;;2.70;99.90;;;;;;4358709;32;20169;-65
2022/02/25 03:00:18;;;;;;;256.87;245.00;;;2.70;99.90;;;;;;4361882;32;20546;-66
2022/02/25 03:02:45;;;;;;;261.67;249.83;;;2.70;99.90;;;;;;4360222;33;20205;-64
2022/02/25 03:05:12;;;;;;;252.97;242.17;;;2.60;99.90;;;;;;4351675;33;20212;-64
2022/02/25 03:07:40;;;;;;;262.90;251.43;;;2.80;99.90;;;;;;4360648;33;20155;-66
2022/02/25 03:10:07;;;;;;;256.00;245.27;;;2.70;99.90;;;;;;4360648;33;20204;-65
2022/02/25 03:12:34;;;;;;;268.77;257.63;;;2.70;99.90;;;;;;4361250;32;20168;-66
2022/02/25 03:15:02;;;;;;;257.10;246.17;;;2.80;99.90;;;;;;4359253;33;20167;-62
2022/02/25 03:17:29;;;;;;;251.37;240.40;;;2.90;99.90;;;;;;4360126;33;20228;-65
2022/02/25 03:19:57;;;;;;;263.20;251.70;;;2.80;99.90;;;;;;4360615;33;20218;-64
2022/02/25 03:22:25;;;;;;;261.93;250.80;;;2.90;99.90;;;;;;4360065;33;20205;-64
2022/02/25 03:24:52;;;;;;;256.20;244.97;;;2.90;99.90;;;;;;4358922;33;20167;-63
2022/02/25 03:27:19;;;;;;;261.73;250.53;;;2.90;99.90;;;;;;4360432;33;20146;-65
2022/02/25 03:29:46;;;;;;;270.27;258.90;;;2.90;99.90;;;;;;4360642;33;20167;-65
2022/02/25 03:32:14;;;;;;;265.67;253.87;;;2.90;99.90;;;;;;4362471;32;20182;-64
2022/02/25 03:34:41;;;;;;;267.43;255.27;;;2.90;99.90;;;;;;4361585;33;20153;-65
2022/02/25 03:37:09;;;;;;;264.50;252.93;;;3.00;99.90;;;;;;4363289;33;20168;-62
2022/02/25 03:39:36;;;;;;;272.27;260.37;;;3.00;99.90;;;;;;4363348;33;20146;-65
2022/02/25 03:42:03;;;;;;;268.30;256.70;;;3.00;99.90;;;;;;4363006;33;20701;-66
2022/02/25 03:44:30;;;;;;;261.43;250.20;;;2.90;99.90;;;;;;4360231;32;20191;-64
2022/02/25 03:46:57;;;;;;;277.00;264.83;;;2.80;99.90;;;;;;4357438;33;20146;-63
2022/02/25 03:49:25;;;;;;;267.47;256.13;;;2.70;99.90;;;;;;4363709;32;20577;-66
2022/02/25 03:51:52;;;;;;;259.10;247.77;;;2.70;99.90;;;;;;4363548;32;20225;-66
2022/02/25 03:54:19;;;;;;;264.50;253.07;;;2.70;99.90;;;;;;4362188;32;20221;-66
2022/02/25 03:56:46;;;;;;;274.40;262.13;;;2.70;99.90;;;;;;4357602;33;20504;-65
2022/02/25 03:59:13;;;;;;;268.27;256.97;;;2.60;99.90;;;;;;4362679;32;20180;-65
2022/02/25 04:01:40;;;;;;;281.67;269.50;;;2.70;99.90;;;;;;4362832;33;20216;-66
2022/02/25 04:04:07;;;;;;;283.77;271.73;;;2.70;99.90;;;;;;4363271;32;20137;-63
2022/02/25 04:06:35;;;;;;;275.03;263.20;;;2.70;99.90;;;;;;4350044;32;20201;-63
2022/02/25 04:09:02;;;;;;;272.07;260.53;;;2.70;99.90;;;;;;4350431;33;20182;-65
2022/02/25 04:11:28;;;;;;;277.87;265.70;;;2.70;99.90;;;;;;4363785;32;20150;-62
2022/02/25 04:13:55;;;;;;;267.17;255.43;;;2.70;99.90;;;;;;4353189;33;20173;-66
2022/02/25 04:16:22;;;;;;;292.93;279.70;;;2.70;99.90;;;;;;4351694;33;20223;-67
2022/02/25 04:18:49;;;;;;;278.53;266.93;;;2.80;99.90;;;;;;4348114;33;20203;-64
2022/02/25 04:21:16;;;;;;;288.03;275.63;;;2.80;99.90;;;;;;4347499;33;20533;-64
2022/02/25 04:23:44;;;;;;;268.87;257.67;;;2.80;99.90;;;;;;4349230;33;20225;-63
2022/02/25 04:26:10;;;;;;;280.23;267.53;;;2.90;99.90;;;;;;4354954;32;20174;-64
2022/02/25 04:28:37;;;;;;;269.07;257.30;;;2.90;99.90;;;;;;4360616;33;20217;-63
2022/02/25 04:31:04;;;;;;;279.47;266.77;;;3.20;99.90;;;;;;4362811;32;20215;-66
2022/02/25 04:33:32;;;;;;;271.33;259.67;;;3.30;99.90;;;;;;4362701;32;20567;-63
2022/02/25 04:35:58;;;;;;;259.10;246.97;;;3.40;99.90;;;;;;4356974;33;20171;-64
2022/02/25 04:38:25;;;;;;;258.20;247.03;;;3.50;99.90;;;;;;4348315;33;20264;-65
2022/02/25 04:40:54;;;;;;;258.67;247.67;;;3.50;99.90;;;;;;4362777;32;20472;-64
2022/02/25 04:43:21;;;;;;;277.77;265.73;;;3.50;99.90;;;;;;4362157;32;20175;-62
2022/02/25 04:45:50;;;;;;;270.00;258.23;;;3.50;99.90;;;;;;4349441;33;20220;-64
2022/02/25 04:48:17;;;;;;;260.20;248.70;;;3.70;99.90;;;;;;4347575;33;20191;-63
2022/02/25 04:50:44;;;;;;;244.53;233.13;;;3.60;99.90;;;;;;4348320;33;20470;-65
2022/02/25 04:53:11;;;;;;;260.90;249.00;;;3.50;99.90;;;;;;4353975;32;20171;-65
2022/02/25 04:55:38;;;;;;;253.20;241.77;;;3.50;99.90;;;;;;4351999;33;20163;-63
2022/02/25 04:58:06;;;;;;;262.53;250.83;;;3.50;99.90;;;;;;4362374;33;20610;-65
2022/02/25 05:00:33;;;;;;;259.80;248.13;;;3.60;99.90;;;;;;4362326;33;20144;-65
2022/02/25 05:03:00;;;;;;;255.93;243.73;;;3.60;99.90;;;;;;4355636;32;20153;-63
2022/02/25 05:05:27;;;;;;;270.80;258.40;;;3.60;99.90;;;;;;4348619;33;20179;-64
2022/02/25 05:07:53;;;;;;;269.53;257.30;;;3.60;99.90;;;;;;4347624;33;20633;-65
2022/02/25 05:10:20;;;;;;;276.43;263.63;;;3.50;99.90;;;;;;4351349;33;20208;-63
2022/02/25 05:12:47;;;;;;;274.70;262.27;;;3.50;99.90;;;;;;4359074;32;20174;-64
2022/02/25 05:20:44;;;;;;;271.73;259.03;;;3.60;99.90;;;;;;4361486;33;20220;-66
2022/02/25 05:23:11;;;;;;;279.10;266.93;;;3.60;99.90;;;;;;4357676;32;20200;-63
2022/02/25 05:25:39;;;;;;;287.80;275.03;;;3.60;99.90;;;;;;4351834;33;20567;-64
2022/02/25 05:28:05;;;;;;;289.03;276.03;;;3.70;99.90;;;;;;4361760;33;20141;-63
2022/02/25 05:30:34;;;;;;;287.87;274.83;;;3.70;99.90;;;;;;4363639;32;20173;-64
2022/02/25 05:33:01;;;;;;;284.70;272.07;;;3.60;99.90;;;;;;4358830;33;20635;-63
2022/02/25 05:35:28;;;;;;;286.47;273.47;;;3.70;99.90;;;;;;4361236;32;20641;-65
2022/02/25 05:37:55;;;;;;;290.93;277.67;;;3.70;99.90;;;;;;4361658;33;20178;-66
2022/02/25 05:40:23;;;;;;;300.00;286.10;;;3.70;99.90;;;;;;4361365;33;20214;-66
2022/02/25 05:42:50;;;;;;;311.87;297.50;;;3.70;99.90;;;;;;4361390;32;20551;-64
2022/02/25 05:45:17;;;;;;;309.53;295.43;;;3.70;99.90;;;;;;4346762;33;20566;-66
2022/02/25 05:47:46;;;;;;;303.47;289.40;;;3.70;99.90;;;;;;4346560;33;20220;-66
2022/02/25 05:50:14;;;;;;;311.97;298.77;;;3.70;99.90;;;;;;4347279;33;20660;-66
2022/02/25 05:52:42;;;;;;;316.67;302.23;;;3.70;99.90;;;;;;4346888;33;20573;-63
2022/02/25 05:55:10;;;;;;;317.27;302.83;;;3.80;99.90;;;;;;4350864;33;20187;-67
2022/02/25 05:57:36;;;;;;;321.70;306.87;;;3.70;99.90;;;;;;4360940;33;20145;-66
2022/02/25 06:00:04;;;;;;;320.93;306.50;;;3.70;99.90;;;;;;4360959;32;20205;-66
2022/02/25 06:02:31;;;;;;;322.80;307.43;;;3.70;99.90;;;;;;4356707;32;20220;-66
2022/02/25 06:04:59;;;;;;;332.27;317.23;;;3.70;99.90;;;;;;4348134;33;20610;-66
2022/02/25 06:07:26;;;;;;;330.67;315.27;;;3.70;99.90;;;;;;4346989;33;20142;-63
2022/02/25 06:09:53;;;;;;;336.23;320.67;;;3.60;99.90;;;;;;4346378;33;20166;-67
2022/02/25 06:12:20;;;;;;;348.43;331.70;;;3.60;99.90;;;;;;4354746;33;20162;-63
2022/02/25 06:14:47;;;;;;;339.37;324.03;;;3.60;99.90;;;;;;4357681;33;20155;-63
2022/02/25 06:17:13;;;;;;;344.30;327.80;;;3.70;99.90;;;;;;4360881;32;20527;-64
2022/02/25 06:19:40;;;;;;;339.47;323.80;;;3.70;99.90;;;;;;4361553;32;20146;-63
2022/02/25 06:22:08;;;;;;;338.37;323.53;;;3.70;99.90;;;;;;4361218;32;20187;-63
2022/02/25 06:24:35;;;;;;;335.53;320.73;;;3.80;99.90;;;;;;4357911;32;20647;-63
2022/02/25 06:27:02;;;;;;;338.30;321.37;;;3.80;99.90;;;;;;4357490;32;20211;-63
2022/02/25 06:29:29;;;;;;;339.10;323.23;;;3.80;99.90;;;;;;4358315;32;20594;-63
2022/02/25 06:31:56;;;;;;;348.30;332.27;;;3.80;99.90;;;;;;4359686;32;20181;-63
2022/02/25 06:34:23;;;;;;;351.20;334.50;;;3.90;99.90;;;;;;4357781;33;20200;-64
2022/02/25 06:36:50;;;;;;;346.53;330.80;;;3.90;99.90;;;;;;4359267;32;20220;-63
2022/02/25 06:39:18;;;;;;;344.10;328.60;;;3.90;99.90;;;;;;4359247;33;20181;-63
2022/02/25 06:41:45;;;;;;;345.97;329.97;;;3.90;99.90;;;;;;4357862;32;20233;-62
2022/02/25 06:44:12;;;;;;;356.20;339.13;;;4.00;99.90;;;;;;4358425;33;20286;-66
2022/02/25 06:46:39;;;;;;;348.33;332.00;;;4.10;99.90;;;;;;4358679;33;20159;-65
2022/02/25 06:49:06;;;;;;;342.23;325.50;;;4.10;99.90;;;;;;4358600;33;20215;-65
2022/02/25 06:51:33;;;;;;;343.90;327.57;;;4.10;99.90;;;;;;4358206;33;20141;-62
2022/02/25 06:54:00;;;;;;;347.50;331.47;;;4.10;99.90;;;;;;4357519;33;20162;-63
2022/02/25 06:56:29;;;;;;;343.43;328.07;;;4.10;99.90;;;;;;4358978;33;20152;-61
2022/02/25 06:58:55;;;;;;;349.50;333.37;;;4.10;99.90;;;;;;4360156;32;20191;-65
2022/02/25 07:01:22;;;;;;;344.67;328.43;;;4.10;99.90;;;;;;4359181;32;20729;-62
2022/02/25 07:03:49;;;;;;;356.50;340.40;;;4.10;99.90;;;;;;4358557;32;20154;-67
2022/02/25 07:06:17;;;;;;;344.27;327.73;;;4.20;99.90;;;;;;4359127;32;20181;-63
2022/02/25 07:08:44;;;;;;;321.77;307.07;;;4.30;99.90;;;;;;4359061;32;20211;-64
2022/02/25 07:11:11;;;;;;;313.67;299.43;;;4.50;99.90;;;;;;4358609;32;20503;-68
2022/02/25 07:13:39;;;;;;;330.80;316.70;;;4.50;99.90;;;;;;4355979;33;20191;-63
2022/02/25 07:16:06;;;;;;;302.43;287.83;;;4.70;99.90;;;;;;4357756;32;20209;-62
2022/02/25 07:18:32;;;;;;;286.17;272.57;;;4.80;99.90;;;;;;4359118;33;20204;-62
2022/02/25 07:20:59;;;;;;;274.47;262.33;;;4.80;99.90;;;;;;4358514;33;20216;-65
2022/02/25 07:23:26;;;;;;;259.83;247.57;;;4.80;99.90;;;;;;4357296;33;20219;-63
2022/02/25 07:25:53;;;;;;;255.27;242.80;;;4.90;99.90;;;;;;4357820;33;20272;-63
2022/02/25 07:28:20;;;;;;;269.93;258.40;;;4.90;99.90;;;;;;4359089;32;20252;-63
2022/02/25 07:30:48;;;;;;;267.23;255.13;;;4.90;99.90;;;;;;4359534;33;20160;-63
2022/02/25 07:33:15;;;;;;;252.73;241.43;;;5.10;99.90;;;;;;4355900;32;20183;-66
2022/02/25 07:35:42;;;;;;;249.37;238.47;;;5.30;99.90;;;;;;4353600;32;21661;-65
2022/02/25 07:38:09;;;;;;;244.63;233.57;;;5.40;99.90;;;;;;4345558;32;20151;-65
2022/02/25 07:40:35;;;;;;;257.90;246.20;;;5.50;99.90;;;;;;4344181;32;20680;-64
2022/02/25 07:43:02;;;;;;;240.63;230.17;;;5.70;99.90;;;;;;4347892;32;20228;-64
2022/02/25 07:45:29;;;;;;;242.90;231.27;;;5.70;99.90;;;;;;4353806;32;20163;-66
2022/02/25 07:47:57;;;;;;;230.40;219.30;;;5.70;99.90;;;;;;4359659;33;20625;-65
2022/02/25 07:50:24;;;;;;;230.53;219.60;;;5.60;99.90;;;;;;4361656;33;20160;-63
2022/02/25 07:52:51;;;;;;;243.77;232.60;;;5.50;99.90;;;;;;4359605;33;20157;-65
2022/02/25 07:55:18;;;;;;;260.63;248.77;;;5.60;99.90;;;;;;4351437;33;20149;-64
2022/02/25 07:57:45;;;;;;;243.60;232.13;;;5.80;99.90;;;;;;4346953;33;20638;-62
2022/02/25 08:00:15;;;;;;;237.37;226.87;;;5.90;99.90;;;;;;4346137;33;20145;-63
2022/02/25 08:02:43;;;;;;;236.53;225.63;;;5.80;99.90;;;;;;4345742;33;20145;-64
2022/02/25 08:05:14;;;;;;;239.60;228.83;;;5.80;99.90;;;;;;4347808;33;20191;-62
2022/02/25 08:07:42;;;;;;;231.07;219.83;;;5.60;99.90;;;;;;4346802;33;20163;-63
2022/02/25 08:10:10;;;;;;;226.57;216.10;;;5.50;99.90;;;;;;4345256;33;20145;-64
2022/02/25 08:12:38;;;;;;;241.03;230.10;;;5.60;99.90;;;;;;4345331;33;20157;-63
2022/02/25 08:15:07;;;;;;;226.70;216.27;;;5.80;99.90;;;;;;4348137;33;20202;-63
2022/02/25 08:17:33;;;;;;;225.47;215.10;;;5.90;99.90;;;;;;4360552;32;20219;-63
2022/02/25 08:20:00;;;;;;;223.27;212.70;;;5.80;99.90;;;;;;4362618;33;20145;-63
2022/02/25 08:22:28;;;;;;;230.63;220.07;;;5.90;99.90;;;;;;4362617;33;20165;-64
2022/02/25 08:24:55;;;;;;;227.07;217.00;;;6.00;99.90;;;;;;4360034;33;20222;-63
2022/02/25 08:27:24;;;;;;;224.63;214.03;;;6.30;99.90;;;;;;4347993;33;20477;-65
2022/02/25 08:29:51;;;;;;;218.90;209.47;;;6.50;99.90;;;;;;4347812;33;20200;-63
2022/02/25 08:32:17;;;;;;;231.50;221.00;;;6.90;99.90;;;;;;4348151;33;20201;-64
2022/02/25 08:34:44;;;;;;;220.07;210.20;;;7.10;99.90;;;;;;4348768;33;20521;-63
2022/02/25 08:37:11;;;;;;;219.67;209.60;;;7.20;99.90;;;;;;4347710;33;20285;-63
2022/02/25 08:39:39;;;;;;;188.77;179.37;;;7.30;99.90;;;;;;4347506;33;20162;-62
2022/02/25 08:42:06;;;;;;;212.47;202.33;;;7.30;99.90;;;;;;4349340;33;20193;-63
2022/02/25 08:44:33;;;;;;;202.13;192.37;;;7.30;99.90;;;;;;4348901;33;20577;-62
2022/02/25 08:47:01;;;;;;;200.63;190.97;;;7.30;99.90;;;;;;4349339;33;20160;-63
2022/02/25 08:49:29;;;;;;;206.60;197.07;;;7.60;99.90;;;;;;4348518;33;20172;-63
2022/02/25 08:51:56;;;;;;;204.47;195.57;;;7.70;99.90;;;;;;4348432;33;20145;-63
2022/02/25 08:54:23;;;;;;;209.37;199.67;;;7.60;99.90;;;;;;4347281;33;20208;-63
2022/02/25 08:56:51;;;;;;;201.73;192.00;;;7.50;99.90;;;;;;4348977;33;20188;-63
2022/02/25 08:59:18;;;;;;;215.77;205.63;;;7.30;99.90;;;;;;4347719;33;20207;-63
2022/02/25 09:01:44;;;;;;;201.67;192.33;;;7.10;99.90;;;;;;4347195;33;20150;-63
2022/02/25 09:04:11;;;;;;;224.83;214.70;;;6.90;99.90;;;;;;4347162;33;20172;-63
2022/02/25 09:06:40;;;;;;;231.63;221.10;;;6.80;99.90;;;;;;4354096;32;20152;-63
2022/02/25 09:09:07;;;;;;;259.70;247.83;;;6.80;99.90;;;;;;4362472;32;20145;-63
2022/02/25 09:11:34;;;;;;;247.63;235.63;;;6.80;99.90;;;;;;4362791;32;20570;-63
2022/02/25 09:14:02;;;;;;;243.93;232.80;;;6.70;99.90;;;;;;4362803;32;20167;-62
2022/02/25 09:16:29;;;;;;;229.80;218.53;;;6.70;99.90;;;;;;4358768;33;20153;-63
2022/02/25 09:18:55;;;;;;;229.00;217.33;;;6.60;99.90;;;;;;4347377;33;20141;-63
2022/02/25 09:21:23;;;;;;;246.00;235.23;;;6.50;99.90;;;;;;4347154;33;20485;-63
2022/02/25 09:23:50;;;;;;;267.53;255.00;;;6.40;99.90;;;;;;4346923;33;20149;-63
2022/02/25 09:26:18;;;;;;;276.13;263.53;;;6.50;99.90;;;;;;4348075;33;20669;-63
2022/02/25 09:28:45;;;;;;;277.50;264.30;;;6.70;99.90;;;;;;4347696;32;20489;-63
2022/02/25 09:31:13;;;;;;;232.20;221.17;;;7.20;99.90;;;;;;4347041;33;20168;-63
2022/02/25 09:33:40;;;;;;;212.40;202.63;;;7.30;99.90;;;;;;4348529;33;20645;-63
2022/02/25 09:36:08;;;;;;;223.67;213.30;;;7.40;99.90;;;;;;4347637;33;20585;-63
2022/02/25 09:38:36;;;;;;;217.93;207.93;;;7.40;99.90;;;;;;4359066;33;20204;-63
2022/02/25 09:41:08;;;;;;;239.53;228.90;;;7.40;99.90;;;;;;4361478;33;20191;-63
2022/02/25 09:43:35;;;;;;;232.40;221.53;;;7.20;99.90;;;;;;4361813;32;20502;-64
2022/02/25 09:46:02;;;;;;;271.23;258.83;;;6.90;99.90;;;;;;4362511;32;20143;-63
2022/02/25 09:48:31;;;;;;;251.83;240.77;;;6.90;99.90;;;;;;4350353;33;20145;-63
2022/02/25 09:50:58;;;;;;;246.07;234.93;;;7.00;99.90;;;;;;4346797;33;20173;-62
2022/02/25 09:53:25;;;;;;;228.63;218.43;;;7.30;99.90;;;;;;4346783;33;20157;-63
2022/02/25 09:55:52;;;;;;;234.57;223.20;;;7.70;99.90;;;;;;4346700;33;20157;-63
2022/02/25 09:58:19;;;;;;;216.70;207.37;;;8.30;99.90;;;;;;4350053;32;20150;-63
2022/02/25 10:00:49;;;;;;;207.03;197.53;;;8.60;99.90;;;;;;4346554;33;20165;-63
2022/02/25 10:03:18;;;;;;;213.17;203.00;;;8.90;99.90;;;;;;4347554;33;20250;-63
2022/02/25 10:05:48;;;;;;;230.00;219.13;;;9.00;99.90;;;;;;4346430;33;20184;-63
2022/02/25 10:08:16;;;;;;;198.10;188.57;;;8.90;99.90;;;;;;4348138;33;20217;-63
2022/02/25 10:10:48;;;;;;;200.57;191.07;;;8.60;99.90;;;;;;4347945;33;20214;-63
2022/02/25 10:13:18;;;;;;;222.83;212.53;;;8.30;99.90;;;;;;4346482;33;20165;-63
2022/02/25 10:15:48;;;;;;;223.70;212.97;;;8.00;99.90;;;;;;4346432;33;20435;-63
2022/02/25 10:18:17;;;;;;;233.40;222.90;;;8.00;99.90;;;;;;4349034;32;20145;-63
2022/02/25 10:20:47;;;;;;;245.70;235.17;;;8.10;99.90;;;;;;4286364;32;2842842;-63
2022/02/25 10:23:26;;;;;;;230.77;220.17;;;8.20;99.90;;;;;;4376907;32;20174;-63
2022/02/25 10:25:55;;;;;;;211.23;201.37;;;8.20;99.90;;;;;;4375896;32;20171;-63
2022/02/25 10:28:38;;;;;;;213.90;204.33;;;8.10;99.90;;;;;;4371224;32;20207;-64
2022/02/25 10:31:25;;;;;;;228.33;216.87;;;8.00;99.90;;;;;;4361147;32;20168;-63
2022/02/25 10:34:00;;;;;;;217.77;207.47;;;7.80;99.90;;;;;;4361105;32;20200;-63
2022/02/25 10:36:37;;;;;;;236.13;225.00;;;7.70;99.90;;;;;;4361846;32;20171;-63
2022/02/25 10:39:04;;;;;;;237.63;226.87;;;7.60;99.90;;;;;;4362792;32;20576;-63
2022/02/25 10:41:31;;;;;;;221.30;210.97;;;7.60;99.90;;;;;;4360753;32;20149;-63
2022/02/25 10:43:58;;;;;;;242.23;230.70;;;7.60;99.90;;;;;;4361474;32;20161;-63
2022/02/25 10:46:25;;;;;;;245.40;234.47;;;7.50;99.90;;;;;;4360933;32;20164;-63
2022/02/25 10:48:51;;;;;;;259.93;247.53;;;7.40;99.90;;;;;;4363638;32;20210;-64
2022/02/25 10:51:23;;;;;;;279.47;267.30;;;7.20;99.90;;;;;;4360770;32;20171;-63
2022/02/25 10:53:54;;;;;;;263.73;251.83;;;7.10;99.90;;;;;;4360819;32;20167;-63
2022/02/25 10:56:23;;;;;;;277.63;264.77;;;6.90;99.90;;;;;;4361253;32;20464;-64
2022/02/25 10:58:51;;;;;;;293.27;279.77;;;6.70;99.90;;;;;;4363458;32;20165;-64
2022/02/25 11:01:22;;;;;;;314.30;301.00;;;6.80;99.90;;;;;;4362377;32;20156;-63
2022/02/25 11:04:01;;;;;;;305.90;292.67;;;6.60;99.90;;;;;;4360628;32;20168;-63
2022/02/25 11:06:30;;;;;;;317.07;302.97;;;6.30;99.90;;;;;;4360871;32;20518;-63
2022/02/25 11:08:58;;;;;;;294.30;281.77;;;6.10;99.90;;;;;;4363192;32;20592;-64
2022/02/25 11:11:25;;;;;;;320.57;305.53;;;6.30;99.90;;;;;;4364581;32;20153;-63
2022/02/25 11:13:52;;;;;;;308.20;294.13;;;6.70;99.90;;;;;;4369392;32;20176;-64
2022/02/25 11:16:20;;;;;;;336.87;321.27;;;7.30;99.90;;;;;;4360394;33;20187;-63
2022/02/25 11:18:48;;;;;;;317.27;302.97;;;7.60;99.90;;;;;;4361044;32;20149;-64
2022/02/25 11:21:19;;;;;;;308.97;294.63;;;7.40;99.90;;;;;;4375218;32;20200;-66
2022/02/25 11:23:49;;;;;;;269.63;257.40;;;7.20;99.90;;;;;;4375925;32;20545;-67
2022/02/25 11:26:20;;;;;;;267.97;255.70;;;7.00;99.90;;;;;;4375381;32;20179;-65
2022/02/25 11:28:48;;;;;;;267.37;255.40;;;6.90;99.90;;;;;;4375760;32;20615;-66
2022/02/25 11:31:23;;;;;;;232.03;221.20;;;6.90;99.90;;;;;;4364411;32;20149;-64
2022/02/25 11:33:52;;;;;;;228.47;218.33;;;6.80;99.90;;;;;;4360471;32;20144;-63
2022/02/25 11:36:20;;;;;;;253.83;242.33;;;6.70;99.90;;;;;;4360407;32;20167;-67
2022/02/25 11:38:48;;;;;;;270.47;258.30;;;6.50;99.90;;;;;;4361000;32;20579;-63
2022/02/25 11:41:23;;;;;;;267.40;255.77;;;6.50;99.90;;;;;;4369173;32;20216;-65
2022/02/25 11:43:51;;;;;;;297.77;284.40;;;6.40;99.90;;;;;;4375325;32;20147;-64
2022/02/25 11:46:24;;;;;;;300.37;286.37;;;6.30;99.90;;;;;;4377024;32;20195;-66
2022/02/25 11:48:56;;;;;;;302.77;288.53;;;6.20;99.90;;;;;;4375345;32;20144;-64
2022/02/25 11:51:31;;;;;;;291.33;277.50;;;6.20;99.90;;;;;;4364171;32;20508;-63
2022/02/25 11:54:26;;;;;;;273.97;261.27;;;6.10;99.90;;;;;;4362073;32;20210;-64
2022/02/25 11:57:24;;;;;;;265.90;253.67;;;6.00;99.90;;;;;;4364076;32;20195;-65
2022/02/25 12:00:31;;;;;;;286.43;273.00;;;5.90;99.90;;;;;;4364366;32;20149;-63
2022/02/25 12:03:15;;;;;;;280.17;267.77;;;5.80;99.90;;;;;;4316773;33;20251;-62
2022/02/25 12:05:49;;;;;;;299.73;285.93;;;5.60;99.90;;;;;;4317513;33;20154;-64
2022/02/25 12:08:33;;;;;;;308.90;294.63;;;5.60;99.90;;;;;;4316756;33;20229;-64
2022/02/25 12:11:29;;;;;;;306.30;292.20;;;5.90;99.90;;;;;;4323628;33;20153;-63
2022/02/25 12:14:00;;;;;;;310.90;296.90;;;6.10;99.90;;;;;;4332614;33;20239;-62
2022/02/25 12:16:33;;;;;;;297.80;283.97;;;6.30;99.90;;;;;;4331278;33;20157;-67
2022/02/25 12:19:10;;;;;;;317.37;302.13;;;6.60;99.90;;;;;;4331793;33;20208;-66
2022/02/25 12:21:42;;;;;;;267.90;255.63;;;7.10;99.90;;;;;;4328944;33;20613;-65
2022/02/25 12:24:15;;;;;;;255.80;243.10;;;7.40;99.90;;;;;;4331120;33;20213;-65
2022/02/25 12:26:43;;;;;;;216.03;205.70;;;7.90;99.90;;;;;;4331263;33;20228;-65
2022/02/25 12:29:19;;;;;;;217.53;207.10;;;8.10;99.90;;;;;;4331172;33;20226;-64